Home > Products > Valid Products > TAF

000
FTUS41 KCAR 280520
TAFBGR
TAF
KBGR 280520Z 2806/2906 36004KT P6SM SCT200
     FM282200 VRB03KT 5SM -SHSN BKN020
     FM290100 VRB03KT P6SM SKC=



000
FTUS41 KCAR 280520
TAFHUL
TAF
KHUL 280520Z 2806/2906 VRB03KT P6SM SCT200
     FM281600 34005KT P6SM BKN020
     FM282100 34005KT P6SM VCSH SCT030
     FM290200 VRB03KT P6SM SKC=



000
FTUS41 KCAR 280520
TAFBHB
TAF
KBHB 280520Z 2806/2906 34006KT P6SM SCT200
     FM290000 VRB03KT 5SM -SHSN BKN020
     FM290300 VRB03KT P6SM SKC
      AMD LTD TO CLD VIS AND WIND=



000
FTUS41 KCAR 280520
TAFCAR
TAF
KCAR 280520Z 2806/2906 VRB03KT P6SM SCT200
     FM281500 34005KT P6SM BKN020
     FM282100 34005KT P6SM VCSH SCT030
     FM290000 VRB03KT 5SM -SHSN BKN030
     FM290200 VRB03KT P6SM SKC=



000
FTUS41 KCAR 280520
TAFPQI
TAF
KPQI 280520Z 2806/2906 34006KT P6SM SCT040
     FM281500 34005KT P6SM BKN020
     FM282100 34005KT P6SM VCSH SCT030
     FM290000 VRB03KT 5SM -SHSN BKN030
     FM290200 VRB03KT P6SM SKC
      AMD LTD TO CLD VIS AND WIND=



000
FTUS41 KCAR 280203 AAA
TAFBHB
TAF AMD
KBHB 280203Z 2802/2824 02008KT P6SM BKN025
     FM280400 02008KT P6SM BKN040
      AMD LTD TO CLD VIS AND WIND=



000
FTUS41 KCAR 272326
TAFBGR
TAF
KBGR 272326Z 2800/2824 36008KT P6SM BKN040=



000
FTUS41 KCAR 272326
TAFHUL
TAF
KHUL 272326Z 2800/2824 34006KT P6SM SCT040
     FM280800 34006KT P6SM BKN035
     FM281200 34008KT P6SM BKN025
     FM281600 34008KT P6SM BKN035=



000
FTUS41 KCAR 272326
TAFPQI
TAF
KPQI 272326Z 2800/2824 34006KT P6SM SCT040
     FM280800 34006KT P6SM BKN035
     FM281200 34008KT P6SM BKN025
     FM281800 34008KT P6SM BKN035
      AMD LTD TO CLD VIS AND WIND=



000
FTUS41 KCAR 272326
TAFCAR
TAF
KCAR 272326Z 2800/2824 34006KT P6SM SCT040
     FM280800 34006KT P6SM BKN035
     FM281200 34008KT P6SM BKN025
     FM281800 34008KT P6SM BKN035=



000
FTUS41 KCAR 272326
TAFBHB
TAF
KBHB 272326Z 2800/2824 36008KT P6SM BKN025
     FM280100 36008KT P6SM BKN040
      AMD LTD TO CLD VIS AND WIND=



000
FTUS41 KCAR 272303 AAA
TAFBGR
TAF AMD
KBGR 272303Z 2723/2818 36008KT P6SM BKN025
     FM280000 36006KT P6SM SCT050=



000
FTUS41 KCAR 272236 AAA
TAFBHB
TAF AMD
KBHB 272236Z 2723/2818 36006KT P6SM BKN025
     FM280000 36006KT P6SM SCT050
      AMD LTD TO CLD VIS AND WIND=



000
FTUS41 KCAR 272141 AAA
TAFHUL
TAF AMD
KHUL 272141Z 2722/2818 34008KT P6SM BKN025
     FM280000 34006KT P6SM SCT040
     FM281500 34008KT P6SM BKN050=



000
FTUS41 KCAR 272137 AAB
TAFPQI
TAF AMD
KPQI 272137Z 2722/2818 33010KT P6SM BKN025
     FM280000 33006KT P6SM SCT040
     FM281500 33010KT P6SM BKN050
      AMD LTD TO CLD VIS AND WIND=



000
FTUS41 KCAR 272010 AAA
TAFPQI
TAF AMD
KPQI 272010Z 2720/2818 33010KT P6SM OVC025
     FM272100 33006KT P6SM SCT030
     FM281500 33010KT P6SM BKN050
      AMD LTD TO CLD VIS AND WIND=



000
FTUS41 KCAR 272009 AAB
TAFCAR
TAF AMD
KCAR 272009Z 2720/2818 34011KT P6SM OVC025
     FM272200 34007KT P6SM SCT030
     FM281500 33010KT P6SM BKN050=



000
FTUS41 KCAR 271724
TAFPQI
TAF
KPQI 271724Z 2718/2818 34016G22KT P6SM OVC030
     FM272000 35015G25KT P6SM BKN030
     FM272100 33006KT P6SM SCT030
      AMD LTD TO CLD VIS AND WIND=



000
FTUS41 KCAR 271724
TAFCAR
TAF
KCAR 271724Z 2718/2818 34013G20KT 5SM -SN BR OVC035
     FM272000 35015G25KT P6SM BKN030
     FM272200 34007KT P6SM SCT030=



000
FTUS41 KCAR 271724
TAFHUL
TAF
KHUL 271724Z 2718/2818 35012G22KT P6SM OVC023
     FM272000 35015G25KT P6SM BKN030
     FM272200 33009KT P6SM SCT030=



000
FTUS41 KCAR 271724
TAFBHB
TAF
KBHB 271724Z 2718/2818 34010G15KT P6SM OVC023
     FM272100 33006KT P6SM SCT035
      AMD LTD TO CLD VIS AND WIND=



000
FTUS41 KCAR 271724
TAFBGR
TAF
KBGR 271724Z 2718/2818 34015G20KT P6SM BKN050
     FM272100 33006KT P6SM SCT035=



000
FTUS41 KCAR 271510 AAA
TAFPQI
TAF AMD
KPQI 271510Z 2715/2812 36014G20KT 2SM -SN BR OVC035
     FM271700 35015G25KT 5SM -SN OVC030
     FM272000 35015G25KT P6SM BKN030
     FM272100 33006KT P6SM SCT030
      AMD LTD TO CLD VIS AND WIND=



000
FTUS41 KCAR 271509 AAA
TAFCAR
TAF AMD
KCAR 271509Z 2715/2812 34014G22KT 3SM -SN BR OVC050
     FM271700 35015G25KT 4SM -SN BR OVC030
     FM272000 35015G25KT P6SM BKN030
     FM272200 34007KT P6SM SCT030=



000
FTUS41 KCAR 271149
TAFBHB
TAF
KBHB 271149Z 2712/2812 36018G35KT 2SM -SN OVC020
     FM271330 34013G23KT 4SM -SN BKN030
     FM271500 33013G20KT P6SM BKN030
     FM271900 33006KT P6SM SCT035
      AMD LTD TO CLD VIS AND WIND=



000
FTUS41 KCAR 271149
TAFBGR
TAF
KBGR 271149Z 2712/2812 35017G25KT 1SM -SN VV010
     FM271300 35015G25KT 4SM -SN OVC030
     FM271700 33013G20KT P6SM BKN030
     FM271900 33006KT P6SM SCT035=



000
FTUS41 KCAR 271149
TAFHUL
TAF
KHUL 271149Z 2712/2812 35013G22KT 1SM -SN VV010
     FM271700 35015G25KT 4SM -SN OVC020
     FM272000 35015G25KT P6SM BKN030
     FM272200 33009KT P6SM SCT030=



000
FTUS41 KCAR 271149
TAFCAR
TAF
KCAR 271149Z 2712/2812 36013G22KT 1SM -SN VV010
     FM271700 35015G25KT 4SM -SN OVC030
     FM272000 35015G25KT P6SM BKN030
     FM272200 34007KT P6SM SCT030=



000
FTUS41 KCAR 271149
TAFPQI
TAF
KPQI 271149Z 2712/2812 36013G22KT 1 1/2SM -SN VV008
     FM271700 35015G25KT 5SM -SN OVC030
     FM272000 35015G25KT P6SM BKN030
     FM272100 33006KT P6SM SCT030
      AMD LTD TO CLD VIS AND WIND=



000
FTUS41 KCAR 270533
TAFPQI
TAF
KPQI 270533Z 2706/2806 01013G22KT 1SM -SN VV008
     FM270900 01013G22KT 1 1/2SM -SN OVC008
     FM271700 35015G25KT 5SM -SN OVC030
     FM272100 35015G25KT P6SM BKN030
     FM272200 33006KT P6SM SCT030
      AMD LTD TO CLD VIS AND WIND=



000
FTUS41 KCAR 270533
TAFHUL
TAF
KHUL 270533Z 2706/2806 02013G22KT 1/2SM SN VV005
     FM270900 01013G22KT 1 1/2SM -SN OVC008
     FM271700 35015G25KT 4SM -SN OVC020
     FM272000 35015G25KT P6SM BKN030
     FM272300 33009KT P6SM SCT030=



000
FTUS41 KCAR 270533
TAFBHB
TAF
KBHB 270533Z 2706/2806 02020G32KT 3SM -SNPL OVC008
     FM270730 36018G35KT 1SM -SN OVC020
     FM271400 34013G23KT 4SM -SN BKN030
     FM271600 33013G20KT P6SM BKN030
     FM271900 33006KT P6SM SCT035
      AMD LTD TO CLD VIS AND WIND=



000
FTUS41 KCAR 270533
TAFCAR
TAF
KCAR 270533Z 2706/2806 01013G24KT 1SM -SN VV010
     FM270900 01013G22KT 1 1/2SM -SN OVC008
     FM271630 35015G25KT 4SM -SN OVC020
     FM272000 35015G25KT P6SM BKN030
     FM272130 34007KT P6SM SCT030=



000
FTUS41 KCAR 270533
TAFBGR
TAF
KBGR 270533Z 2706/2806 02015G27KT 1SM -SN VV010
     FM270730 01017G32KT 1SM -SN OVC010
     FM271400 36015G25KT 4SM -SN OVC030
     FM271700 33013G20KT P6SM BKN030
     FM271900 33006KT P6SM SCT035=



000
FTUS41 KCAR 270304 AAA
TAFBGR
TAF AMD
KBGR 270304Z 2703/2724 02011G23KT 1/2SM SN VV005
     FM270700 02017G27KT 1SM -SN OVC008
     FM271100 36015G25KT 4SM -SN OVC030
     FM271500 33013G23KT P6SM BKN040=



000
FTUS41 KCAR 262339
TAFCAR
TAF
KCAR 262339Z 2700/2724 36006KT P6SM -SN OVC040
     FM270100 02007KT 2SM -SN OVC020
     FM270300 01013G22KT 1/2SM SN VV005
     FM270900 01013G22KT 1 1/2SM -SN OVC008
     FM271500 35015G25KT 4SM -SN OVC020
     FM271700 35015G25KT P6SM BKN040=



000
FTUS41 KCAR 262339
TAFPQI
TAF
KPQI 262339Z 2700/2724 02006KT 6SM -SN OVC040
     FM270100 02008KT 1 1/2SM -SN OVC020
     FM270300 01013G22KT 1/2SM SN VV005
     FM270900 01013G22KT 1 1/2SM -SN OVC008
     FM271500 35015G25KT 4SM -SN OVC020
     FM271700 35015G25KT P6SM BKN040
      AMD LTD TO CLD VIS AND WIND=



000
FTUS41 KCAR 262339
TAFHUL
TAF
KHUL 262339Z 2700/2724 03010KT 1 1/2SM -SN OVC015
     FM270200 02013G22KT 1/2SM SN VV005
     FM270900 01013G22KT 1 1/2SM -SN OVC008
     FM271500 35015G25KT 4SM -SN OVC020
     FM271700 35015G25KT P6SM BKN040=



000
FTUS41 KCAR 262339
TAFBHB
TAF
KBHB 262339Z 2700/2724 01008KT 1/2SM SN OVC004
     FM270330 02020G30KT 2SM -SNPL OVC008
     FM271000 34015G27KT 4SM -SN OVC020
     FM271400 33013G23KT P6SM BKN040
      AMD LTD TO CLD VIS AND WIND=



000
FTUS41 KCAR 262339
TAFBGR
TAF
KBGR 262339Z 2700/2724 02011KT 1/2SM SN VV005
     FM270700 02017G27KT 1SM -SN OVC008
     FM271100 36015G25KT 4SM -SN OVC030
     FM271500 33013G23KT P6SM BKN040=



000
FTUS41 KCAR 262053 AAC
TAFBHB
TAF AMD
KBHB 262053Z 2621/2718 01008KT 1/2SM SN OVC004
     FM262200 03013G23KT 1/4SM +SN VV003
     FM270330 02020G35KT 4SM -SNPL OVC008
     FM271000 34015G27KT P6SM OVC030
     FM271200 33013G23KT P6SM BKN040
      AMD LTD TO CLD VIS AND WIND=



000
FTUS41 KCAR 261931 AAB
TAFBHB
TAF AMD
KBHB 261931Z 2620/2718 01008KT 1/2SM SN OVC010
     FM262200 03013G23KT 1/4SM +SN VV005
     FM270330 02020G35KT 4SM -FZRAPL OVC008
     FM271000 34015G27KT P6SM OVC030
     FM271200 33013G23KT P6SM BKN040
      AMD LTD TO CLD VIS AND WIND=



000
FTUS41 KCAR 261912 AAB
TAFBGR
TAF AMD
KBGR 261912Z 2619/2718 36011KT 1/2SM SN OVC010
     FM262200 02014G25KT 1/4SM +SN VV003
     FM270400 02017G27KT 2SM -SN VV005
     FM271000 36015G25KT P6SM OVC030
     FM271200 33013G23KT P6SM BKN040=



000
FTUS41 KCAR 261843 AAA
TAFBGR
TAF AMD
KBGR 261843Z 2619/2718 36011KT 2SM -SN OVC025
     FM262200 02014G25KT 1/4SM +SN VV003
     FM270400 02017G27KT 2SM -SN VV005
     FM271000 36015G25KT P6SM OVC030
     FM271200 33013G23KT P6SM BKN040=



000
FTUS41 KCAR 261821 AAA
TAFBHB
TAF AMD
KBHB 261821Z 2618/2718 10008KT 3SM -RASN OVC020
     FM262200 03013G23KT 1/4SM +SN VV005
     FM270330 02020G35KT 4SM -FZRAPL OVC008
     FM271000 34015G27KT P6SM OVC030
     FM271200 33013G23KT P6SM BKN040
      AMD LTD TO CLD VIS AND WIND=



000
FTUS41 KCAR 261728
TAFCAR
TAF
KCAR 261728Z 2618/2718 36006KT P6SM OVC070
     FM270000 01009KT 4SM -SN OVC025
     FM270100 01013G22KT 1/2SM SN VV005
     FM270700 01013G22KT 1 1/2SM -SN VV008
     FM271500 35015G25KT P6SM BKN030=



000
FTUS41 KCAR 261728
TAFPQI
TAF
KPQI 261728Z 2618/2718 36006KT P6SM OVC070
     FM270000 01009KT 4SM -SN OVC025
     FM270100 01013G22KT 1/2SM SN VV005
     FM270700 01013G22KT 1 1/2SM -SN VV008
     FM271500 35015G25KT P6SM BKN030
      AMD LTD TO CLD VIS AND WIND=



000
FTUS41 KCAR 261728
TAFBHB
TAF
KBHB 261728Z 2618/2718 01008KT P6SM OVC040
     FM261900 01008KT 6SM -RASN OVC030
     FM262000 01008KT 3SM -RASN OVC020
     FM262230 03013G23KT 1/4SM +SN VV005
     FM270330 02020G35KT 4SM -FZRAPL OVC008
     FM271000 34015G27KT P6SM OVC030
     FM271200 33013G23KT P6SM BKN040
      AMD LTD TO CLD VIS AND WIND=



000
FTUS41 KCAR 261728
TAFHUL
TAF
KHUL 261728Z 2618/2718 35005KT P6SM OVC070
     FM262200 02007KT 4SM -SN OVC025
     FM270000 02013G22KT 1/2SM SN VV005
     FM270700 01013G22KT 1 1/2SM -SN VV008
     FM271500 35015G25KT P6SM BKN030=



000
FTUS41 KCAR 261728
TAFBGR
TAF
KBGR 261728Z 2618/2718 34011KT P6SM SCT030 OVC050
     FM261930 36011KT 6SM -SN OVC030
     FM262030 36011KT 3SM -SN OVC015
     FM262300 02014G25KT 1/4SM +SN VV003
     FM270400 02017G27KT 2SM -SN VV005
     FM271000 36015G25KT P6SM OVC030
     FM271200 33013G23KT P6SM BKN040=



000
FTUS41 KCAR 261141
TAFHUL
TAF
KHUL 261141Z 2612/2712 27005KT P6SM BKN250
     FM261900 34004KT P6SM SCT025 OVC050
     FM262100 01006KT 3SM -SN SCT015 OVC025
     FM262230 02007KT 1SM -SN VV008=



000
FTUS41 KCAR 261141
TAFCAR
TAF
KCAR 261141Z 2612/2712 25010G20KT P6SM BKN045
     FM261430 29010G18KT P6SM BKN030
     FM261900 01005KT P6SM SCT030 OVC100
     FM270100 36006KT 1SM -SN VV008
     FM270500 02017G25KT 1/2SM SN VV005=



000
FTUS41 KCAR 261141
TAFBGR
TAF
KBGR 261141Z 2612/2712 28006KT P6SM SCT070 BKN200
     FM261500 34004KT P6SM BKN070
     FM261800 34004KT 3SM -RASN SCT007 OVC015
     FM262000 02005KT 1SM -SN VV005
     FM262300 02008KT 1/4SM +SN VV003
     FM270600 36020G40KT 1SM -SN OVC010=



000
FTUS41 KCAR 261141
TAFBHB
TAF
KBHB 261141Z 2612/2712 VRB03KT P6SM BKN200
     FM261800 36006KT 3SM -RASN SCT015 OVC025
     FM261900 03008KT 1SM -SN VV008
     FM262300 03009KT 1/4SM +SN VV005
     FM270400 05025G45KT 5SM -FZRAPL OVC010
     FM270900 36020G45KT 2SM -SN OVC008
      AMD LTD TO CLD VIS AND WIND=



000
FTUS41 KCAR 261141
TAFPQI
TAF
KPQI 261141Z 2612/2712 25009KT P6SM BKN050
     FM261530 29010G18KT P6SM BKN030
     FM261900 01005KT P6SM SCT030 OVC100
     FM262300 36005KT 6SM -SN SCT025 OVC030
     FM270000 36006KT 1SM -SN VV008
     FM270400 02017G25KT 1/2SM SN VV005
      AMD LTD TO CLD VIS AND WIND=



000
FTUS41 KCAR 260937 AAA
TAFPQI
TAF AMD
KPQI 260937Z 2610/2706 25009KT P6SM BKN050
     FM261400 29010G18KT P6SM BKN030
     FM261900 01005KT P6SM SCT030 OVC100
     FM262300 36005KT 6SM -SN SCT025 OVC030
     FM270000 36006KT 1SM -SN VV008
      AMD LTD TO CLD VIS AND WIND=



000
FTUS41 KCAR 260856 AAC
TAFHUL
TAF AMD
KHUL 260856Z 2609/2706 27009G20KT P6SM BKN050
     FM261000 27005KT P6SM BKN250
     FM261900 34004KT P6SM SCT025 OVC050
     FM262100 01006KT 3SM -SN SCT015 OVC025
     FM262200 02007KT 1SM -SN VV008=



000
FTUS41 KCAR 260822 AAB
TAFHUL
TAF AMD
KHUL 260822Z 2608/2706 25009G20KT P6SM BKN050
     FM261000 27005KT P6SM BKN250
     FM261900 34004KT P6SM SCT025 OVC050
     FM262100 01006KT 3SM -SN SCT015 OVC025
     FM262200 02007KT 1SM -SN VV008=



000
FTUS41 KCAR 260744 AAA
TAFHUL
TAF AMD
KHUL 260744Z 2608/2706 25009G30KT P6SM BKN050
     FM260800 27005KT P6SM BKN250
     FM261900 34004KT P6SM SCT025 OVC050
     FM262100 01006KT 3SM -SN SCT015 OVC025
     FM262200 02007KT 1SM -SN VV008=



000
FTUS41 KCAR 260549 CCA
TAFPQI
TAF COR
KPQI 260549Z 2606/2706 25010G25KT P6SM BKN050
     FM261400 29010G18KT P6SM BKN030
     FM261900 01005KT P6SM SCT030 OVC100
     FM262300 36005KT 6SM -SN SCT025 OVC030
     FM270000 36006KT 1SM -SN VV008
      AMD LTD TO CLD VIS AND WIND=



000
FTUS41 KCAR 260548
TAFCAR
TAF
KCAR 260548Z 2606/2706 25010G20KT P6SM BKN045
     FM261300 29010G18KT P6SM BKN030
     FM261900 01005KT P6SM SCT030 OVC100
     FM270100 36006KT 1SM -SN VV008=



000
FTUS41 KCAR 260548
TAFBGR
TAF
KBGR 260548Z 2606/2706 26006KT P6SM SCT070 BKN200
     FM261500 34004KT P6SM BKN070
     FM261800 34004KT 3SM -RASN SCT007 OVC015
     FM262000 02005KT 1SM -SN VV005
     FM262200 02005KT 1/4SM +SN VV003=



000
FTUS41 KCAR 260548
TAFPQI
TAF
KPQI 260548Z 2606/2706 25010G17KT P6SM BKN050
     FM261400 29010G18KT P6SM BKN030
     FM261900 01005KT P6SM SCT030 OVC100
     FM262300 36005KT 6SM -SN SCT025 OVC030
     FM270000 36006KT 1SM -SN VV008
      AMD LTD TO CLD VIS AND WIND=



000
FTUS41 KCAR 260548
TAFHUL
TAF
KHUL 260548Z 2606/2706 25007KT P6SM SKC
     FM260800 27005KT P6SM BKN250
     FM261900 34004KT P6SM SCT025 OVC050
     FM262100 01006KT 3SM -SN SCT015 OVC025
     FM262200 02007KT 1SM -SN VV008=



000
FTUS41 KCAR 260548
TAFBHB
TAF
KBHB 260548Z 2606/2706 VRB03KT P6SM BKN200
     FM261500 35005KT P6SM -RA BKN070
     FM261800 36006KT 3SM -RASN SCT015 OVC025
     FM261930 03008KT 1SM -SN VV008
     FM262200 03009KT 1/2SM SN VV005
     FM270300 04020G38KT 2SM -SNPL OVC008
      AMD LTD TO CLD VIS AND WIND=



000
FTUS41 KCAR 252343
TAFPQI
TAF
KPQI 252343Z 2600/2624 24012G22KT P6SM BKN250
     FM260500 25010KT P6SM SCT001 BKN250
     FM262100 36005KT 6SM -SN SCT025 OVC050
      AMD LTD TO CLD VIS AND WIND=



000
FTUS41 KCAR 252343
TAFCAR
TAF
KCAR 252343Z 2600/2624 23010G20KT P6SM BKN050
     FM260500 25010KT P6SM BKN120
     FM262200 36006KT 6SM -SN OVC050=



000
FTUS41 KCAR 252343
TAFHUL
TAF
KHUL 252343Z 2600/2624 25007KT P6SM SKC
     FM260800 27005KT P6SM BKN250
     FM261900 34004KT P6SM SCT025 OVC050
     FM262100 01006KT 3SM -SN SCT015 OVC025=



000
FTUS41 KCAR 252343
TAFBGR
TAF
KBGR 252343Z 2600/2624 26006KT P6SM BKN250
     FM261500 34004KT P6SM BKN070
     FM261800 34004KT P6SM -RASN SCT007 OVC015
     FM262100 02005KT 2SM -SN SCT003 OVC007=



000
FTUS41 KCAR 252343
TAFBHB
TAF
KBHB 252343Z 2600/2624 VRB03KT P6SM FEW001 BKN250
     FM261500 35005KT P6SM -RA BKN070
     FM261800 36006KT 6SM -RA SCT015 OVC025
     FM262100 03008KT 3SM -SN SCT007 OVC015
     FM262200 03009KT 1SM -SN SCT003 OVC006
      AMD LTD TO CLD VIS AND WIND=



000
FTUS41 KCAR 251731
TAFCAR
TAF
KCAR 251731Z 2518/2618 24022G30KT P6SM BKN040
     FM252300 24012G20KT P6SM BKN040
     FM260800 26008KT P6SM BKN040
     FM261400 32008KT P6SM BKN040=



000
FTUS41 KCAR 251731
TAFBGR
TAF
KBGR 251731Z 2518/2618 22010KT P6SM SCT120
     FM260600 26006KT P6SM BKN200
     FM261200 VRB03KT P6SM OVC080
     FM261600 34006KT P6SM VCSH OVC035=



000
FTUS41 KCAR 251731
TAFPQI
TAF
KPQI 251731Z 2518/2618 24018G28KT P6SM BKN040
     FM252300 24010G18KT P6SM BKN040
     FM260600 26008KT P6SM BKN040
     FM261400 32008KT P6SM BKN040
      AMD LTD TO CLD VIS AND WIND=



000
FTUS41 KCAR 251731
TAFBHB
TAF
KBHB 251731Z 2518/2618 22010KT P6SM SCT120
     FM260600 26006KT P6SM BKN200
     FM261000 VRB03KT P6SM OVC080
     FM261500 34006KT P6SM VCSH OVC030
      AMD LTD TO CLD VIS AND WIND=



000
FTUS41 KCAR 251731
TAFHUL
TAF
KHUL 251731Z 2518/2618 26010KT P6SM SCT050
     FM261400 32008KT P6SM BKN050=



000
FTUS41 KCAR 251522 AAB
TAFBHB
TAF AMD
KBHB 251522Z 2515/2612 21008G16KT P6SM SCT060
     FM260000 26004KT P6SM SCT120 BKN200
     FM260700 VRB03KT P6SM OVC090
      AMD LTD TO CLD VIS AND WIND=



000
FTUS41 KCAR 251518 AAA
TAFBGR
TAF AMD
KBGR 251518Z 2515/2612 21008G16KT P6SM SCT060
     FM260000 26004KT P6SM SCT120 BKN200
     FM260800 VRB03KT P6SM OVC100=



000
FTUS41 KCAR 251515 AAA
TAFHUL
TAF AMD
KHUL 251515Z 2515/2612 27008G16KT P6SM SCT045
     FM260200 26004KT P6SM SCT120 BKN200=



000
FTUS41 KCAR 251155 AAA
TAFBHB
TAF AMD
KBHB 251155Z 2512/2612 21009G16KT 6SM BR BKN008 OVC030
     FM251300 24015G25KT P6SM SCT040 BKN120
     FM252200 25010G18KT P6SM BKN250
     FM260200 26004KT P6SM SCT120 BKN200
     FM260700 VRB02KT P6SM OVC090
      AMD LTD TO CLD VIS AND WIND=



000
FTUS41 KCAR 251120
TAFBHB
TAF
KBHB 251120Z 2512/2612 21009G16KT 6SM BR SCT030 BKN100
     FM251300 24015G25KT P6SM SCT045 BKN120
     FM252200 25010G18KT P6SM BKN250
     FM260200 26004KT P6SM SCT120 BKN200
     FM260700 VRB02KT P6SM OVC090
      AMD LTD TO CLD VIS AND WIND=



000
FTUS41 KCAR 251120
TAFPQI
TAF
KPQI 251120Z 2512/2612 23012G20KT P6SM SCT040 BKN100
     FM251300 24018G30KT P6SM SCT045 BKN120
     FM252200 25012G20KT P6SM BKN250
     FM260500 26006KT P6SM SCT120 BKN200
      AMD LTD TO CLD VIS AND WIND=



000
FTUS41 KCAR 251120
TAFBGR
TAF
KBGR 251120Z 2512/2612 22009G17KT P6SM SCT040 BKN100
     FM251300 24013G22KT P6SM SCT045 BKN120
     FM252200 25012G20KT P6SM BKN250
     FM260200 26004KT P6SM SCT120 BKN200
     FM260800 VRB02KT P6SM OVC100=



000
FTUS41 KCAR 251120
TAFCAR
TAF
KCAR 251120Z 2512/2612 23013G22KT P6SM SCT040 BKN100
     FM251300 24020G32KT P6SM SCT045 BKN120
     FM252200 25012G20KT P6SM BKN250
     FM260500 26007KT P6SM SCT120 BKN200=



000
FTUS41 KCAR 251120
TAFHUL
TAF
KHUL 251120Z 2512/2612 21009G16KT P6SM SCT040 BKN100
     FM251300 23015G25KT P6SM SCT045 BKN120
     FM252200 25010G18KT P6SM BKN250
     FM260400 26004KT P6SM SCT120 BKN200=



    US Dept of Commerce
    National Oceanic and Atmospheric Administration
    National Weather Service
    1325 East West Highway
    Silver Spring, MD 20910
    Page Author: NWS Internet Services Team
Disclaimer
Information Quality
Credits
Glossary
Privacy Policy
Freedom of Information Act (FOIA)
About Us
Career Opportunities